Time;durP1;ratioP1;P1;durP2;ratioP2;P2;SDS_P1;SDS_P2;PMS_P1;PMS_P2;Temp;Humidity;BMP_temperature;BMP_pressure;BME280_temperature;BME280_humidity;BME280_pressure;Samples;Min_cycle;Max_cycle;Signal;HPM_P1;HPM_P2
2021/09/08 00:01:42;;;;;;;11.30;7.43;;;;;;;;;;4975601;28;20023;-52
2021/09/08 00:04:10;;;;;;;9.97;6.77;;;;;;;;;;4975451;28;20029;-53
2021/09/08 00:06:35;;;;;;;10.23;7.30;;;;;;;;;;4975669;28;21055;-51
2021/09/08 00:09:06;;;;;;;11.20;6.73;;;;;;;;;;4975112;28;20070;-51
2021/09/08 00:11:32;;;;;;;9.10;7.38;;;;;;;;;;4975552;28;20270;-57
2021/09/08 00:14:00;;;;;;;9.95;6.95;;;;;;;;;;4975213;28;20050;-56
2021/09/08 00:16:26;;;;;;;9.13;6.90;;;;;;;;;;4975941;28;20019;-57
2021/09/08 00:18:51;;;;;;;10.23;6.57;;;;;;;;;;4975119;28;20031;-52
2021/09/08 00:21:16;;;;;;;10.70;6.80;;;;;;;;;;4975438;28;20466;-56
2021/09/08 00:23:44;;;;;;;11.57;7.63;;;;;;;;;;4975179;28;20097;-56
2021/09/08 00:26:10;;;;;;;8.75;6.75;;;;;;;;;;4973820;28;20661;-57
2021/09/08 00:28:35;;;;;;;10.73;7.82;;;;;;;;;;4974693;28;20038;-55
2021/09/08 00:31:00;;;;;;;11.73;7.78;;;;;;;;;;4975157;28;20019;-57
2021/09/08 00:33:26;;;;;;;11.70;7.80;;;;;;;;;;4974963;28;20031;-56
2021/09/08 00:35:51;;;;;;;10.13;7.57;;;;;;;;;;4973608;28;20025;-55
2021/09/08 00:38:19;;;;;;;10.10;7.67;;;;;;;;;;4974396;28;20026;-55
2021/09/08 00:40:44;;;;;;;9.95;7.18;;;;;;;;;;4974835;28;20281;-53
2021/09/08 00:43:16;;;;;;;14.27;8.50;;;;;;;;;;4974832;28;20027;-51
2021/09/08 00:45:41;;;;;;;10.73;7.68;;;;;;;;;;4974803;28;20389;-55
2021/09/08 00:48:06;;;;;;;9.97;7.63;;;;;;;;;;4972974;28;20023;-53
2021/09/08 00:50:31;;;;;;;12.20;7.40;;;;;;;;;;4973636;28;20262;-54
2021/09/08 00:53:00;;;;;;;11.80;8.10;;;;;;;;;;4974690;28;20892;-52
2021/09/08 00:55:26;;;;;;;12.02;8.60;;;;;;;;;;4974704;28;20019;-55
2021/09/08 00:57:55;;;;;;;13.98;9.82;;;;;;;;;;4974472;28;20442;-51
2021/09/08 01:00:20;;;;;;;14.55;8.93;;;;;;;;;;4974635;28;20026;-50
2021/09/08 01:02:45;;;;;;;12.52;9.00;;;;;;;;;;4974467;28;20478;-51
2021/09/08 01:05:11;;;;;;;11.90;8.23;;;;;;;;;;4973331;28;20022;-52
2021/09/08 01:07:36;;;;;;;12.57;8.75;;;;;;;;;;4974083;28;20310;-55
2021/09/08 01:10:01;;;;;;;13.13;9.30;;;;;;;;;;4973180;28;20061;-56
2021/09/08 01:12:26;;;;;;;11.60;8.80;;;;;;;;;;4973717;28;20600;-57
2021/09/08 01:14:52;;;;;;;13.98;9.25;;;;;;;;;;5001858;23;20051;-59
2021/09/08 01:17:22;;;;;;;15.50;9.20;;;;;;;;;;4973623;28;20025;-56
2021/09/08 01:19:54;;;;;;;11.90;9.07;;;;;;;;;;4963345;28;20270;-56
2021/09/08 01:22:20;;;;;;;12.05;9.07;;;;;;;;;;4955595;28;20035;-54
2021/09/08 01:24:46;;;;;;;12.93;9.52;;;;;;;;;;4955741;28;20023;-56
2021/09/08 01:27:14;;;;;;;15.83;9.43;;;;;;;;;;4954623;28;20022;-56
2021/09/08 01:29:39;;;;;;;14.20;9.43;;;;;;;;;;4955435;28;20785;-57
2021/09/08 01:32:05;;;;;;;13.65;9.27;;;;;;;;;;4965587;28;20027;-55
2021/09/08 01:34:30;;;;;;;12.95;9.07;;;;;;;;;;4955659;28;20055;-54
2021/09/08 01:36:55;;;;;;;14.48;9.38;;;;;;;;;;4955720;28;20019;-56
2021/09/08 01:39:21;;;;;;;12.80;8.55;;;;;;;;;;4955326;28;20390;-54
2021/09/08 01:41:55;;;;;;;12.93;8.77;;;;;;;;;;4954338;28;20110;-49
2021/09/08 01:44:24;;;;;;;13.63;9.02;;;;;;;;;;4955211;28;20525;-56
2021/09/08 01:46:54;;;;;;;12.02;9.30;;;;;;;;;;4954161;28;20039;-53
2021/09/08 01:49:19;;;;;;;14.43;9.80;;;;;;;;;;4956681;28;20023;-52
2021/09/08 01:51:47;;;;;;;14.30;8.98;;;;;;;;;;4955375;28;20470;-54
2021/09/08 01:54:12;;;;;;;13.07;9.68;;;;;;;;;;4954262;29;20024;-55
2021/09/08 01:56:38;;;;;;;12.43;9.40;;;;;;;;;;4955171;28;20034;-57
2021/09/08 01:59:07;;;;;;;12.73;9.20;;;;;;;;;;4953657;28;20620;-56
2021/09/08 02:01:32;;;;;;;12.63;9.48;;;;;;;;;;4953985;28;20119;-53
2021/09/08 02:04:03;;;;;;;12.90;9.40;;;;;;;;;;4955074;28;20109;-56
2021/09/08 02:06:32;;;;;;;12.15;9.32;;;;;;;;;;4955178;28;20081;-55
2021/09/08 02:08:59;;;;;;;12.68;9.35;;;;;;;;;;4959905;28;20031;-56
2021/09/08 02:11:24;;;;;;;13.68;9.50;;;;;;;;;;4971867;28;20035;-55
2021/09/08 02:13:56;;;;;;;12.05;9.02;;;;;;;;;;4969661;28;20051;-52
2021/09/08 02:16:21;;;;;;;14.13;9.57;;;;;;;;;;4953085;29;20027;-53
2021/09/08 02:18:50;;;;;;;13.40;9.80;;;;;;;;;;4953404;28;20546;-54
2021/09/08 02:21:21;;;;;;;14.07;9.50;;;;;;;;;;4954236;28;20027;-55
2021/09/08 02:23:47;;;;;;;13.57;9.40;;;;;;;;;;4952596;28;20020;-55
2021/09/08 02:26:22;;;;;;;13.73;9.60;;;;;;;;;;4962397;28;20386;-54
2021/09/08 02:28:48;;;;;;;14.52;10.38;;;;;;;;;;4953372;28;20027;-54
2021/09/08 02:31:16;;;;;;;15.73;9.95;;;;;;;;;;4953769;28;20019;-56
2021/09/08 02:33:47;;;;;;;15.13;9.45;;;;;;;;;;4960358;28;20553;-56
2021/09/08 02:36:23;;;;;;;12.10;9.52;;;;;;;;;;4972947;28;20114;-56
2021/09/08 02:38:48;;;;;;;14.60;9.82;;;;;;;;;;4972935;28;20049;-56
2021/09/08 02:41:16;;;;;;;13.57;9.70;;;;;;;;;;4972905;28;20441;-55
2021/09/08 02:43:41;;;;;;;14.43;10.18;;;;;;;;;;4964245;28;20263;-49
2021/09/08 02:46:07;;;;;;;14.80;10.30;;;;;;;;;;4952372;29;20027;-51
2021/09/08 02:48:32;;;;;;;13.73;10.67;;;;;;;;;;4953089;28;20283;-51
2021/09/08 02:50:58;;;;;;;19.48;10.50;;;;;;;;;;4952242;28;20686;-55
2021/09/08 02:53:27;;;;;;;16.67;11.00;;;;;;;;;;4952391;28;20038;-54
2021/09/08 02:55:52;;;;;;;13.93;10.40;;;;;;;;;;4953443;28;20118;-56
2021/09/08 02:58:18;;;;;;;16.42;10.40;;;;;;;;;;4952944;28;20445;-53
2021/09/08 03:00:47;;;;;;;13.90;9.93;;;;;;;;;;4951855;28;20485;-52
2021/09/08 03:03:15;;;;;;;18.55;11.07;;;;;;;;;;4953227;28;20585;-53
2021/09/08 03:05:52;;;;;;;13.90;10.18;;;;;;;;;;4953364;28;20031;-53
2021/09/08 03:08:20;;;;;;;15.35;9.95;;;;;;;;;;4952963;28;20051;-51
2021/09/08 03:10:54;;;;;;;13.20;10.27;;;;;;;;;;4969839;28;20022;-53
2021/09/08 03:13:26;;;;;;;15.35;10.45;;;;;;;;;;4972173;28;20044;-54
2021/09/08 03:15:51;;;;;;;14.25;10.73;;;;;;;;;;4971547;28;20018;-56
2021/09/08 03:18:18;;;;;;;18.20;10.37;;;;;;;;;;4960239;28;20023;-56
2021/09/08 03:20:52;;;;;;;15.23;10.40;;;;;;;;;;4953321;28;20278;-55
2021/09/08 03:23:18;;;;;;;15.13;10.95;;;;;;;;;;4952020;28;20031;-54
2021/09/08 03:25:49;;;;;;;14.43;10.63;;;;;;;;;;4953314;28;20037;-56
2021/09/08 03:28:14;;;;;;;15.45;10.75;;;;;;;;;;4952607;28;20288;-55
2021/09/08 03:30:42;;;;;;;15.67;11.00;;;;;;;;;;4951907;28;20027;-56
2021/09/08 03:33:07;;;;;;;14.75;10.25;;;;;;;;;;4952974;28;20274;-54
2021/09/08 03:35:36;;;;;;;17.35;11.40;;;;;;;;;;4953226;28;20023;-55
2021/09/08 03:38:04;;;;;;;17.10;11.60;;;;;;;;;;4952742;28;20441;-56
2021/09/08 03:40:29;;;;;;;18.55;11.15;;;;;;;;;;4953220;28;20398;-55
2021/09/08 03:42:54;;;;;;;14.87;10.63;;;;;;;;;;4953608;28;20016;-56
2021/09/08 03:45:25;;;;;;;15.18;11.38;;;;;;;;;;4972438;28;20273;-50
2021/09/08 03:47:53;;;;;;;14.10;9.85;;;;;;;;;;4957342;28;20028;-54
2021/09/08 03:50:19;;;;;;;14.40;10.07;;;;;;;;;;4952704;28;20031;-51
2021/09/08 03:52:44;;;;;;;13.60;10.00;;;;;;;;;;4953009;28;20023;-55
2021/09/08 03:55:12;;;;;;;15.93;10.95;;;;;;;;;;4952920;28;20265;-54
2021/09/08 03:57:37;;;;;;;16.40;10.90;;;;;;;;;;4952657;28;20035;-55
2021/09/08 04:00:04;;;;;;;16.77;11.87;;;;;;;;;;4951270;28;20015;-56
2021/09/08 04:02:29;;;;;;;20.15;12.57;;;;;;;;;;4952729;28;20259;-56
2021/09/08 04:04:55;;;;;;;18.77;12.18;;;;;;;;;;4951661;28;20019;-55
2021/09/08 04:07:20;;;;;;;20.67;12.70;;;;;;;;;;4951971;28;20043;-52
2021/09/08 04:09:52;;;;;;;17.80;11.87;;;;;;;;;;4959027;28;20422;-54
2021/09/08 04:12:20;;;;;;;18.20;12.43;;;;;;;;;;4974031;28;20266;-53
2021/09/08 04:14:46;;;;;;;17.67;12.43;;;;;;;;;;4975360;28;20486;-57
2021/09/08 04:17:11;;;;;;;18.90;11.93;;;;;;;;;;4972561;28;20106;-56
2021/09/08 04:19:40;;;;;;;17.63;11.37;;;;;;;;;;4954441;29;20434;-55
2021/09/08 04:22:05;;;;;;;16.40;11.57;;;;;;;;;;4954704;28;20271;-54
2021/09/08 04:24:33;;;;;;;17.73;11.90;;;;;;;;;;4955800;28;20098;-53
2021/09/08 04:26:58;;;;;;;17.73;12.25;;;;;;;;;;4955973;28;20026;-52
2021/09/08 04:29:30;;;;;;;17.98;12.50;;;;;;;;;;4955630;28;20078;-52
2021/09/08 04:31:58;;;;;;;19.33;12.88;;;;;;;;;;4955799;28;20031;-55
2021/09/08 04:34:26;;;;;;;19.63;13.05;;;;;;;;;;4955927;28;20019;-55
2021/09/08 04:36:51;;;;;;;20.30;12.75;;;;;;;;;;4955909;28;20019;-56
2021/09/08 04:39:26;;;;;;;18.80;12.13;;;;;;;;;;4955256;28;20098;-53
2021/09/08 04:41:51;;;;;;;15.75;11.48;;;;;;;;;;4955690;28;20813;-54
2021/09/08 04:44:19;;;;;;;16.48;12.00;;;;;;;;;;4954389;28;20031;-51
2021/09/08 04:46:50;;;;;;;16.48;11.52;;;;;;;;;;4955616;28;20038;-53
2021/09/08 04:49:21;;;;;;;18.52;12.30;;;;;;;;;;4955213;28;20498;-52
2021/09/08 04:51:53;;;;;;;15.93;11.75;;;;;;;;;;4954176;28;20086;-57
2021/09/08 04:54:18;;;;;;;19.35;12.15;;;;;;;;;;4954134;28;20193;-53
2021/09/08 04:56:43;;;;;;;18.10;12.13;;;;;;;;;;4955460;28;20528;-56
2021/09/08 04:59:14;;;;;;;18.95;12.40;;;;;;;;;;4953632;28;20266;-56
2021/09/08 05:01:39;;;;;;;18.95;13.15;;;;;;;;;;4955359;28;20035;-56
2021/09/08 05:04:07;;;;;;;18.38;12.70;;;;;;;;;;4954951;28;20019;-56
2021/09/08 05:06:35;;;;;;;16.42;12.23;;;;;;;;;;4955282;28;20027;-52
2021/09/08 05:09:06;;;;;;;15.70;12.20;;;;;;;;;;4955541;28;20091;-52
2021/09/08 05:11:34;;;;;;;16.45;11.52;;;;;;;;;;4974547;28;20441;-54
2021/09/08 05:14:18;;;;;;;19.30;12.93;;;;;;;;;;4972895;28;20038;-53
2021/09/08 05:16:46;;;;;;;17.23;12.02;;;;;;;;;;4974368;28;20110;-56
2021/09/08 05:19:11;;;;;;;19.63;13.27;;;;;;;;;;4956784;28;20026;-55
2021/09/08 05:21:36;;;;;;;16.57;12.27;;;;;;;;;;4968137;28;20493;-55
2021/09/08 05:24:05;;;;;;;16.10;11.03;;;;;;;;;;4955561;28;20298;-53
2021/09/08 05:26:39;;;;;;;17.50;12.02;;;;;;;;;;4979847;28;20293;-53
2021/09/08 05:29:06;;;;;;;16.63;12.70;;;;;;;;;;4970190;28;20030;-54
2021/09/08 05:31:33;;;;;;;16.45;12.15;;;;;;;;;;4968593;28;20023;-55
2021/09/08 05:33:59;;;;;;;16.25;11.13;;;;;;;;;;4969293;28;20181;-54
2021/09/08 05:36:24;;;;;;;16.90;11.77;;;;;;;;;;4973013;28;20018;-53
2021/09/08 05:39:00;;;;;;;17.20;12.57;;;;;;;;;;4961792;28;20109;-54
2021/09/08 05:41:28;;;;;;;19.60;13.15;;;;;;;;;;4971589;28;20308;-54
2021/09/08 05:43:53;;;;;;;18.75;12.68;;;;;;;;;;4956606;28;20360;-56
2021/09/08 05:46:19;;;;;;;21.90;13.13;;;;;;;;;;4964515;28;20078;-53
2021/09/08 05:48:44;;;;;;;17.70;11.95;;;;;;;;;;4896995;28;20094;-54
2021/09/08 05:51:12;;;;;;;19.73;13.13;;;;;;;;;;4962385;28;20029;-55
2021/09/08 05:53:37;;;;;;;20.88;14.32;;;;;;;;;;4969105;28;20682;-51
2021/09/08 05:56:02;;;;;;;22.20;14.70;;;;;;;;;;4954336;28;20082;-54
2021/09/08 05:58:27;;;;;;;20.48;14.65;;;;;;;;;;4968938;28;20274;-55
2021/09/08 06:00:53;;;;;;;22.23;14.82;;;;;;;;;;4977033;28;20390;-56
2021/09/08 06:03:18;;;;;;;24.67;14.27;;;;;;;;;;4963011;28;20023;-56
2021/09/08 06:05:43;;;;;;;21.40;13.90;;;;;;;;;;4976033;28;20265;-53
2021/09/08 06:08:09;;;;;;;19.35;14.20;;;;;;;;;;4958235;28;20279;-56
2021/09/08 06:10:34;;;;;;;20.15;14.13;;;;;;;;;;4978511;28;20010;-55
2021/09/08 06:13:02;;;;;;;19.83;13.80;;;;;;;;;;4961777;28;20034;-56
2021/09/08 06:15:27;;;;;;;18.73;13.48;;;;;;;;;;4958745;28;20766;-55
2021/09/08 06:17:52;;;;;;;17.50;13.23;;;;;;;;;;4960039;28;20029;-56
2021/09/08 06:20:18;;;;;;;19.05;13.00;;;;;;;;;;4973365;28;20848;-56
2021/09/08 06:22:43;;;;;;;16.60;11.80;;;;;;;;;;4957469;28;20453;-56
2021/09/08 06:25:09;;;;;;;16.77;11.50;;;;;;;;;;4965548;28;20029;-57
2021/09/08 06:27:38;;;;;;;16.13;11.80;;;;;;;;;;4967493;28;20043;-56
2021/09/08 06:30:04;;;;;;;16.77;11.98;;;;;;;;;;4967128;28;20077;-55
2021/09/08 06:32:29;;;;;;;17.52;11.38;;;;;;;;;;4964783;28;20028;-55
2021/09/08 06:34:56;;;;;;;15.63;11.40;;;;;;;;;;4958148;28;20027;-52
2021/09/08 06:37:21;;;;;;;14.63;10.98;;;;;;;;;;4970525;28;20027;-55
2021/09/08 06:39:46;;;;;;;18.27;10.65;;;;;;;;;;4964828;28;20125;-55
2021/09/08 06:42:16;;;;;;;15.55;10.88;;;;;;;;;;4959783;28;20019;-56
2021/09/08 06:44:41;;;;;;;14.23;10.75;;;;;;;;;;4952271;28;20086;-56
2021/09/08 06:47:07;;;;;;;14.15;9.95;;;;;;;;;;4953555;28;20023;-56
2021/09/08 06:49:37;;;;;;;15.23;10.77;;;;;;;;;;4951941;28;20066;-53
2021/09/08 06:52:11;;;;;;;13.38;9.55;;;;;;;;;;4953671;28;20046;-56
2021/09/08 06:54:37;;;;;;;13.15;9.73;;;;;;;;;;4953303;28;20029;-57
2021/09/08 06:57:05;;;;;;;14.60;9.93;;;;;;;;;;4952267;28;20379;-57
2021/09/08 06:59:33;;;;;;;17.73;10.88;;;;;;;;;;4953067;28;20474;-57
2021/09/08 07:01:59;;;;;;;15.63;11.07;;;;;;;;;;4953540;28;20035;-57
2021/09/08 07:04:25;;;;;;;12.82;9.32;;;;;;;;;;4952114;28;20114;-57
2021/09/08 07:06:52;;;;;;;14.47;9.37;;;;;;;;;;4953521;28;20023;-57
2021/09/08 07:09:17;;;;;;;14.00;9.50;;;;;;;;;;4955732;28;20298;-52
2021/09/08 07:11:43;;;;;;;13.97;9.27;;;;;;;;;;4963209;28;20463;-57
2021/09/08 07:14:08;;;;;;;15.30;9.18;;;;;;;;;;4970044;23;20145;-61
2021/09/08 07:16:34;;;;;;;13.40;9.90;;;;;;;;;;4971890;28;20532;-61
2021/09/08 07:19:02;;;;;;;14.20;9.50;;;;;;;;;;4971937;28;20055;-61
2021/09/08 07:21:28;;;;;;;13.32;9.85;;;;;;;;;;4954026;28;20055;-61
2021/09/08 07:23:53;;;;;;;13.32;9.82;;;;;;;;;;4954728;28;20082;-60
2021/09/08 07:26:18;;;;;;;13.50;9.45;;;;;;;;;;4976213;28;20366;-61
2021/09/08 07:28:43;;;;;;;12.57;10.13;;;;;;;;;;4959567;28;20027;-57
2021/09/08 07:31:09;;;;;;;14.20;8.90;;;;;;;;;;4958392;28;20274;-61
2021/09/08 07:33:34;;;;;;;13.55;10.57;;;;;;;;;;4959940;28;20630;-61
2021/09/08 07:36:02;;;;;;;12.60;9.73;;;;;;;;;;4954017;28;20102;-60
2021/09/08 07:38:28;;;;;;;12.77;9.40;;;;;;;;;;4953755;28;20271;-61
2021/09/08 07:40:59;;;;;;;12.63;9.85;;;;;;;;;;4975801;28;20023;-61
2021/09/08 07:43:24;;;;;;;12.40;9.25;;;;;;;;;;4958723;28;20031;-59
2021/09/08 07:45:52;;;;;;;15.35;9.55;;;;;;;;;;4953927;28;20110;-61
2021/09/08 07:48:24;;;;;;;15.32;10.10;;;;;;;;;;4960898;28;20385;-60
2021/09/08 07:50:49;;;;;;;11.73;9.57;;;;;;;;;;4957259;28;20023;-61
2021/09/08 07:53:15;;;;;;;14.45;9.27;;;;;;;;;;4957444;28;20027;-61
2021/09/08 07:55:43;;;;;;;15.20;10.20;;;;;;;;;;4957262;28;20047;-60
2021/09/08 07:58:11;;;;;;;13.35;10.30;;;;;;;;;;4957259;28;20374;-62
2021/09/08 08:00:39;;;;;;;11.57;9.52;;;;;;;;;;4956086;28;20430;-62
2021/09/08 08:03:04;;;;;;;12.63;9.15;;;;;;;;;;4957224;28;20023;-58
2021/09/08 08:05:31;;;;;;;13.30;9.60;;;;;;;;;;4955744;28;20062;-61
2021/09/08 08:08:00;;;;;;;13.02;10.18;;;;;;;;;;4957108;28;20023;-61
2021/09/08 08:10:25;;;;;;;15.32;9.65;;;;;;;;;;4957096;28;20024;-61
2021/09/08 08:12:51;;;;;;;13.93;9.32;;;;;;;;;;4957036;28;20467;-61
2021/09/08 08:15:19;;;;;;;11.63;8.93;;;;;;;;;;4959330;28;20066;-61
2021/09/08 08:17:44;;;;;;;11.18;8.82;;;;;;;;;;4963926;28;20402;-60
2021/09/08 08:20:11;;;;;;;10.43;8.05;;;;;;;;;;4956734;28;20011;-61
2021/09/08 08:22:36;;;;;;;9.30;7.82;;;;;;;;;;4962145;28;20547;-60
2021/09/08 08:25:12;;;;;;;10.38;7.43;;;;;;;;;;4956437;28;20027;-61
2021/09/08 08:27:37;;;;;;;9.30;7.10;;;;;;;;;;4955415;28;20023;-60
2021/09/08 08:30:11;;;;;;;10.00;7.57;;;;;;;;;;4978337;28;20586;-61
2021/09/08 08:32:36;;;;;;;12.43;7.68;;;;;;;;;;4989674;28;20262;-60
2021/09/08 08:35:02;;;;;;;10.05;7.55;;;;;;;;;;4956624;28;20027;-61
2021/09/08 08:37:36;;;;;;;11.25;8.27;;;;;;;;;;4956584;28;20019;-60
2021/09/08 08:40:06;;;;;;;11.70;7.57;;;;;;;;;;4956621;28;20107;-61
2021/09/08 08:42:32;;;;;;;11.18;7.50;;;;;;;;;;4956580;28;20025;-60
2021/09/08 08:44:57;;;;;;;12.07;7.75;;;;;;;;;;4956361;28;20026;-60
2021/09/08 08:47:25;;;;;;;11.73;7.93;;;;;;;;;;4956552;28;20058;-61
2021/09/08 08:49:54;;;;;;;9.30;7.43;;;;;;;;;;4980524;28;20037;-60
2021/09/08 08:52:22;;;;;;;10.20;8.07;;;;;;;;;;4975647;28;20493;-58
2021/09/08 08:54:47;;;;;;;9.93;7.85;;;;;;;;;;4975592;28;20091;-60
2021/09/08 08:57:14;;;;;;;9.27;7.93;;;;;;;;;;4975102;28;20023;-61
2021/09/08 08:59:43;;;;;;;11.52;7.60;;;;;;;;;;4975511;28;20731;-61
2021/09/08 09:02:19;;;;;;;11.43;7.82;;;;;;;;;;4975727;28;20091;-61
2021/09/08 09:04:44;;;;;;;11.88;8.02;;;;;;;;;;4975338;28;20018;-61
2021/09/08 09:07:28;;;;;;;9.65;7.88;;;;;;;;;;4975535;28;20081;-61
2021/09/08 09:09:57;;;;;;;10.43;7.78;;;;;;;;;;4975045;28;20030;-59
2021/09/08 09:12:44;;;;;;;9.88;7.78;;;;;;;;;;4975355;28;20106;-61
2021/09/08 09:15:13;;;;;;;9.82;7.88;;;;;;;;;;4974882;28;20557;-61
2021/09/08 09:17:39;;;;;;;10.95;7.78;;;;;;;;;;4974523;28;20057;-59
2021/09/08 09:20:09;;;;;;;10.02;7.78;;;;;;;;;;4954510;28;20027;-61
2021/09/08 09:22:42;;;;;;;13.38;7.88;;;;;;;;;;4954363;28;20618;-61
2021/09/08 09:25:19;;;;;;;12.20;8.45;;;;;;;;;;4979481;28;20030;-61
2021/09/08 09:27:46;;;;;;;10.73;8.27;;;;;;;;;;4957930;28;20023;-62
2021/09/08 09:30:13;;;;;;;9.43;7.75;;;;;;;;;;4980947;28;20413;-61
2021/09/08 09:32:43;;;;;;;9.82;8.68;;;;;;;;;;4957876;28;20023;-61
2021/09/08 09:35:10;;;;;;;11.68;8.38;;;;;;;;;;4955311;28;20114;-61
2021/09/08 09:37:51;;;;;;;9.93;8.00;;;;;;;;;;4955532;28;20432;-61
2021/09/08 09:40:21;;;;;;;10.60;8.57;;;;;;;;;;4955436;29;20074;-61
2021/09/08 09:42:49;;;;;;;11.52;7.35;;;;;;;;;;4955494;28;20016;-61
2021/09/08 09:45:15;;;;;;;10.20;8.30;;;;;;;;;;4955196;28;20024;-61
2021/09/08 09:47:45;;;;;;;9.77;7.20;;;;;;;;;;4955144;28;20046;-61
2021/09/08 09:50:20;;;;;;;9.68;7.85;;;;;;;;;;4954077;28;20030;-61
2021/09/08 09:52:49;;;;;;;9.60;7.95;;;;;;;;;;4955424;28;20027;-62
2021/09/08 09:55:24;;;;;;;9.32;8.02;;;;;;;;;;4955086;28;20047;-61
2021/09/08 09:57:56;;;;;;;11.70;7.72;;;;;;;;;;4953772;28;20023;-60
2021/09/08 10:00:24;;;;;;;11.40;8.27;;;;;;;;;;4955044;28;20081;-61
2021/09/08 10:02:56;;;;;;;11.35;7.88;;;;;;;;;;4955050;28;20019;-61
2021/09/08 10:05:21;;;;;;;8.07;7.13;;;;;;;;;;4961573;28;20030;-61
2021/09/08 10:07:49;;;;;;;8.83;6.97;;;;;;;;;;4974240;28;20386;-62
2021/09/08 10:10:19;;;;;;;9.95;7.97;;;;;;;;;;4973639;28;20250;-61
2021/09/08 10:12:57;;;;;;;10.32;8.45;;;;;;;;;;4974274;28;20018;-62
2021/09/08 10:15:23;;;;;;;10.30;8.77;;;;;;;;;;4973922;28;20042;-62
2021/09/08 10:17:49;;;;;;;11.32;8.20;;;;;;;;;;4971532;28;20509;-61
2021/09/08 10:20:19;;;;;;;11.63;9.18;;;;;;;;;;4955502;28;20019;-62
2021/09/08 10:22:45;;;;;;;11.40;9.65;;;;;;;;;;4954540;28;20102;-62
2021/09/08 10:25:14;;;;;;;13.80;10.13;;;;;;;;;;4954603;28;20099;-62
2021/09/08 10:27:40;;;;;;;12.60;10.23;;;;;;;;;;4953194;28;20026;-62
2021/09/08 10:30:07;;;;;;;11.82;10.05;;;;;;;;;;4953326;29;20023;-62
2021/09/08 10:32:32;;;;;;;12.43;9.27;;;;;;;;;;4954578;28;20127;-62
2021/09/08 10:34:58;;;;;;;10.77;9.50;;;;;;;;;;4954493;28;20475;-62
2021/09/08 10:37:23;;;;;;;13.20;10.88;;;;;;;;;;4954335;28;20479;-62
2021/09/08 10:39:49;;;;;;;10.38;9.27;;;;;;;;;;4953082;28;20119;-62
2021/09/08 10:42:14;;;;;;;10.40;9.30;;;;;;;;;;4954682;28;20019;-62
2021/09/08 10:44:50;;;;;;;11.05;9.25;;;;;;;;;;4954305;28;20019;-62
2021/09/08 10:47:35;;;;;;;12.07;10.52;;;;;;;;;;4954327;28;20023;-62
2021/09/08 10:50:00;;;;;;;13.63;10.30;;;;;;;;;;4954246;28;20058;-62
2021/09/08 10:52:35;;;;;;;12.43;9.57;;;;;;;;;;4954423;28;20055;-62
2021/09/08 10:55:00;;;;;;;11.10;9.93;;;;;;;;;;4952817;28;20082;-62
2021/09/08 10:57:40;;;;;;;12.97;8.87;;;;;;;;;;4954303;28;20023;-62
2021/09/08 11:00:22;;;;;;;11.25;8.85;;;;;;;;;;4954589;28;20015;-61
2021/09/08 11:02:47;;;;;;;12.03;9.10;;;;;;;;;;4954114;28;20023;-62
2021/09/08 11:05:13;;;;;;;15.15;9.30;;;;;;;;;;4953037;28;20634;-59
2021/09/08 11:07:41;;;;;;;10.88;9.02;;;;;;;;;;4967445;28;20027;-61
2021/09/08 11:10:08;;;;;;;12.05;9.80;;;;;;;;;;4972531;28;20407;-61
2021/09/08 11:12:45;;;;;;;11.35;9.52;;;;;;;;;;4972944;28;20046;-61
2021/09/08 11:15:10;;;;;;;11.18;9.57;;;;;;;;;;4970248;28;20050;-62
2021/09/08 11:17:36;;;;;;;12.30;9.65;;;;;;;;;;4970561;28;20019;-62
2021/09/08 11:20:03;;;;;;;13.65;9.57;;;;;;;;;;4972427;28;20109;-64
2021/09/08 11:22:31;;;;;;;14.85;10.18;;;;;;;;;;4977320;28;20388;-62
2021/09/08 11:25:00;;;;;;;14.30;10.15;;;;;;;;;;4970386;28;20043;-62
2021/09/08 11:27:28;;;;;;;11.00;9.85;;;;;;;;;;4957985;28;20102;-62
2021/09/08 11:30:01;;;;;;;12.45;9.43;;;;;;;;;;4957769;28;20039;-62
2021/09/08 11:32:45;;;;;;;13.75;10.65;;;;;;;;;;4957810;28;20107;-62
2021/09/08 11:35:10;;;;;;;11.68;10.48;;;;;;;;;;4975637;28;20014;-62
2021/09/08 11:37:35;;;;;;;14.00;11.50;;;;;;;;;;4977135;28;20450;-62
2021/09/08 11:40:01;;;;;;;12.40;10.60;;;;;;;;;;4974844;28;20262;-62
2021/09/08 11:42:39;;;;;;;12.95;10.68;;;;;;;;;;4976522;28;20258;-63
2021/09/08 11:45:08;;;;;;;11.88;10.23;;;;;;;;;;4976700;28;20051;-61
2021/09/08 11:47:33;;;;;;;15.20;10.52;;;;;;;;;;4976964;28;20056;-62
2021/09/08 11:50:06;;;;;;;11.75;10.43;;;;;;;;;;4975214;28;20043;-62
2021/09/08 11:52:38;;;;;;;11.77;10.23;;;;;;;;;;4964857;28;20026;-62
2021/09/08 11:55:03;;;;;;;16.80;11.82;;;;;;;;;;4975281;28;20019;-62
2021/09/08 11:57:31;;;;;;;15.13;10.77;;;;;;;;;;4958417;28;20034;-62
2021/09/08 12:00:00;;;;;;;13.50;10.93;;;;;;;;;;4973346;28;20057;-62
2021/09/08 12:02:25;;;;;;;14.75;11.02;;;;;;;;;;4991506;28;20494;-62
2021/09/08 12:04:53;;;;;;;11.90;10.40;;;;;;;;;;4960971;28;20035;-63
2021/09/08 12:07:27;;;;;;;13.68;11.80;;;;;;;;;;4955658;28;20306;-62
2021/09/08 12:09:52;;;;;;;12.70;11.45;;;;;;;;;;4955767;28;20027;-62
2021/09/08 12:12:18;;;;;;;12.57;10.23;;;;;;;;;;4939691;29;20033;-62
2021/09/08 12:14:44;;;;;;;13.32;10.85;;;;;;;;;;4956690;28;20338;-61
2021/09/08 12:17:12;;;;;;;11.73;10.15;;;;;;;;;;4969804;28;20096;-61
2021/09/08 12:19:42;;;;;;;12.75;10.65;;;;;;;;;;4958537;28;20031;-62
2021/09/08 12:22:10;;;;;;;10.93;8.98;;;;;;;;;;4955548;28;20030;-62
2021/09/08 12:24:41;;;;;;;11.20;10.00;;;;;;;;;;4955405;28;20502;-62
2021/09/08 12:27:22;;;;;;;11.98;10.30;;;;;;;;;;4956802;28;20114;-62
2021/09/08 12:29:48;;;;;;;16.03;10.13;;;;;;;;;;4963685;28;20027;-62
2021/09/08 12:32:13;;;;;;;13.13;11.33;;;;;;;;;;4974822;28;20020;-62
2021/09/08 12:35:08;;;;;;;16.00;11.07;;;;;;;;;;4975776;28;20258;-60
2021/09/08 12:37:33;;;;;;;12.00;9.75;;;;;;;;;;4983567;28;20254;-62
2021/09/08 12:39:58;;;;;;;15.23;10.60;;;;;;;;;;4974722;28;20038;-62
2021/09/08 12:42:25;;;;;;;9.90;8.70;;;;;;;;;;4990825;28;20345;-62
2021/09/08 12:44:51;;;;;;;11.05;9.95;;;;;;;;;;4964283;28;20501;-62
2021/09/08 12:47:19;;;;;;;10.25;9.23;;;;;;;;;;4955242;28;20019;-62
2021/09/08 12:49:45;;;;;;;12.27;10.82;;;;;;;;;;4956425;28;20043;-61
2021/09/08 12:52:15;;;;;;;11.85;9.32;;;;;;;;;;4955087;28;20529;-62
2021/09/08 12:54:46;;;;;;;12.93;9.63;;;;;;;;;;4955157;28;20030;-61
2021/09/08 12:57:12;;;;;;;10.55;9.45;;;;;;;;;;4954723;28;20462;-62
2021/09/08 12:59:44;;;;;;;10.15;9.05;;;;;;;;;;4955012;28;20041;-62
2021/09/08 13:02:10;;;;;;;11.65;10.05;;;;;;;;;;4989944;28;20031;-62
2021/09/08 13:04:47;;;;;;;10.48;9.38;;;;;;;;;;4963036;28;20039;-62
2021/09/08 13:07:15;;;;;;;11.50;9.70;;;;;;;;;;4963658;28;20054;-62
2021/09/08 13:09:47;;;;;;;12.70;10.15;;;;;;;;;;4973888;28;20054;-62
2021/09/08 13:12:15;;;;;;;10.80;9.27;;;;;;;;;;4975362;28;20081;-62
2021/09/08 13:14:45;;;;;;;9.93;8.93;;;;;;;;;;4985897;23;20042;-60
2021/09/08 13:17:11;;;;;;;13.43;9.38;;;;;;;;;;4974080;28;20449;-61
2021/09/08 13:19:45;;;;;;;11.48;8.93;;;;;;;;;;4958480;28;20138;-61
2021/09/08 13:22:17;;;;;;;10.70;9.40;;;;;;;;;;4954525;29;20501;-61
2021/09/08 13:24:42;;;;;;;14.93;9.20;;;;;;;;;;4955767;28;20039;-61
2021/09/08 13:27:13;;;;;;;12.87;9.67;;;;;;;;;;4955739;28;20266;-61
2021/09/08 13:29:42;;;;;;;10.37;9.37;;;;;;;;;;4954259;29;20082;-61
2021/09/08 13:32:07;;;;;;;14.30;9.68;;;;;;;;;;4955679;28;20274;-61
2021/09/08 13:34:41;;;;;;;10.63;9.50;;;;;;;;;;4955348;28;20024;-61
2021/09/08 13:37:07;;;;;;;11.88;9.35;;;;;;;;;;4954374;29;20023;-60
2021/09/08 13:39:32;;;;;;;13.73;9.60;;;;;;;;;;4955738;28;20097;-60
2021/09/08 13:41:57;;;;;;;11.77;9.38;;;;;;;;;;4954158;29;20030;-60
2021/09/08 13:44:24;;;;;;;9.27;8.37;;;;;;;;;;4955371;28;20090;-60
2021/09/08 13:46:49;;;;;;;15.82;12.85;;;;;;;;;;4955365;28;20031;-60
2021/09/08 13:49:14;;;;;;;18.23;12.52;;;;;;;;;;4955271;28;20062;-61
2021/09/08 13:51:39;;;;;;;16.10;12.27;;;;;;;;;;4962648;28;20390;-58
2021/09/08 13:54:05;;;;;;;14.47;11.63;;;;;;;;;;4971432;28;20113;-61
2021/09/08 13:56:30;;;;;;;12.83;10.93;;;;;;;;;;4962009;28;20118;-61
2021/09/08 13:58:55;;;;;;;13.18;10.15;;;;;;;;;;4986826;28;20281;-61
2021/09/08 14:01:26;;;;;;;11.17;9.70;;;;;;;;;;4975411;28;20556;-61
2021/09/08 14:03:51;;;;;;;11.00;9.80;;;;;;;;;;4970805;28;20270;-61
2021/09/08 14:06:16;;;;;;;11.87;9.73;;;;;;;;;;4971024;28;20034;-61
2021/09/08 14:08:41;;;;;;;11.98;9.73;;;;;;;;;;4974759;28;20649;-61
2021/09/08 14:11:07;;;;;;;14.77;9.35;;;;;;;;;;4978404;28;20030;-61
2021/09/08 14:13:32;;;;;;;11.07;9.77;;;;;;;;;;4976190;28;20027;-61
2021/09/08 14:15:57;;;;;;;9.95;8.88;;;;;;;;;;4972945;28;20054;-61
2021/09/08 14:18:23;;;;;;;11.90;9.15;;;;;;;;;;4966366;28;20031;-61
2021/09/08 14:20:52;;;;;;;10.20;8.43;;;;;;;;;;4953365;28;20027;-60
2021/09/08 14:23:21;;;;;;;10.75;8.95;;;;;;;;;;4953095;28;20034;-61
2021/09/08 14:25:47;;;;;;;9.77;8.30;;;;;;;;;;4953436;28;20027;-61
2021/09/08 14:28:15;;;;;;;10.55;8.50;;;;;;;;;;4953007;28;20489;-61
2021/09/08 14:30:40;;;;;;;10.57;8.68;;;;;;;;;;4951733;29;20478;-60